Time;durP1;ratioP1;P1;durP2;ratioP2;P2;SDS_P1;SDS_P2;PMS_P1;PMS_P2;Temp;Humidity;BMP_temperature;BMP_pressure;BME280_temperature;BME280_humidity;BME280_pressure;Samples;Min_cycle;Max_cycle;Signal;HPM_P1;HPM_P2
2020/12/27 00:00:36;;;;;;;6.68;5.22;;;;;;;;;;4704852;30;20211;-90
2020/12/27 00:03:03;;;;;;;6.32;5.07;;;;;;;;;;4704714;30;20234;-89
2020/12/27 00:05:30;;;;;;;7.72;4.80;;;;;;;;;;4669884;30;20220;-92
2020/12/27 00:07:57;;;;;;;4.35;3.88;;;;;;;;;;4670238;30;20228;-92
2020/12/27 00:10:24;;;;;;;4.70;4.20;;;;;;;;;;4670690;30;20222;-93
2020/12/27 00:13:12;;;;;;;6.93;4.55;;;;;;;;;;4670924;30;20233;-94
2020/12/27 00:15:42;;;;;;;5.28;3.78;;;;;;;;;;4669920;30;20231;-93
2020/12/27 00:18:09;;;;;;;6.03;4.10;;;;;;;;;;4669999;30;20223;-86
2020/12/27 00:20:36;;;;;;;5.38;4.22;;;;;;;;;;4669088;30;20204;-89
2020/12/27 00:23:03;;;;;;;5.25;4.70;;;;;;;;;;4677422;30;20234;-88
2020/12/27 00:25:31;;;;;;;5.60;4.05;;;;;;;;;;4703974;30;20290;-87
2020/12/27 00:27:58;;;;;;;4.65;3.97;;;;;;;;;;4704168;30;20199;-87
2020/12/27 00:30:25;;;;;;;8.00;4.40;;;;;;;;;;4704506;30;20218;-90
2020/12/27 00:32:54;;;;;;;4.32;3.80;;;;;;;;;;4704000;30;20566;-90
2020/12/27 00:35:21;;;;;;;4.55;4.13;;;;;;;;;;4703880;30;20214;-88
2020/12/27 00:37:48;;;;;;;9.10;4.45;;;;;;;;;;4704180;30;20198;-91
2020/12/27 00:40:15;;;;;;;4.80;3.95;;;;;;;;;;4704176;30;20586;-90
2020/12/27 00:42:45;;;;;;;3.80;3.47;;;;;;;;;;4704116;30;20281;-90
2020/12/27 00:45:12;;;;;;;5.63;5.00;;;;;;;;;;4703250;30;20249;-85
2020/12/27 00:47:39;;;;;;;4.65;3.72;;;;;;;;;;4703678;30;20675;-88
2020/12/27 00:50:07;;;;;;;5.00;4.60;;;;;;;;;;4703953;30;20210;-91
2020/12/27 00:52:34;;;;;;;5.38;4.10;;;;;;;;;;4704087;30;20645;-93
2020/12/27 00:55:01;;;;;;;4.93;3.83;;;;;;;;;;4703669;30;20203;-89
2020/12/27 00:57:28;;;;;;;3.75;3.10;;;;;;;;;;4703945;30;20187;-93
2020/12/27 00:59:55;;;;;;;7.60;3.90;;;;;;;;;;4704267;30;20203;-93
2020/12/27 01:02:23;;;;;;;5.55;3.70;;;;;;;;;;4704704;30;20238;-94
2020/12/27 01:04:50;;;;;;;7.07;4.38;;;;;;;;;;4703901;30;20239;-92
2020/12/27 01:07:17;;;;;;;3.65;3.30;;;;;;;;;;4704523;30;20367;-93
2020/12/27 01:09:50;;;;;;;4.75;3.25;;;;;;;;;;4703678;30;20221;-93
2020/12/27 01:12:17;;;;;;;9.35;3.45;;;;;;;;;;4703911;30;20381;-93
2020/12/27 01:14:44;;;;;;;3.63;3.33;;;;;;;;;;4704799;30;20246;-94
2020/12/27 01:17:11;;;;;;;4.75;3.53;;;;;;;;;;4704305;30;20566;-87
2020/12/27 01:19:42;;;;;;;3.58;3.20;;;;;;;;;;4704061;30;20216;-88
2020/12/27 01:22:09;;;;;;;3.85;3.45;;;;;;;;;;4652333;30;20563;-88
2020/12/27 01:24:36;;;;;;;4.32;3.60;;;;;;;;;;4651996;30;20228;-92
2020/12/27 01:27:04;;;;;;;4.45;3.42;;;;;;;;;;4652319;30;20592;-89
2020/12/27 01:29:33;;;;;;;4.78;4.25;;;;;;;;;;4651897;30;20201;-90
2020/12/27 01:32:01;;;;;;;4.55;3.58;;;;;;;;;;4652160;30;20596;-89
2020/12/27 01:34:28;;;;;;;4.82;3.75;;;;;;;;;;4652053;30;20227;-89
2020/12/27 01:36:56;;;;;;;9.95;3.42;;;;;;;;;;4652041;30;20217;-88
2020/12/27 01:39:23;;;;;;;3.80;3.28;;;;;;;;;;4658300;30;20219;-90
2020/12/27 01:41:52;;;;;;;3.75;3.45;;;;;;;;;;4703401;30;20202;-91
2020/12/27 01:44:19;;;;;;;6.13;4.00;;;;;;;;;;4703575;30;20234;-92
2020/12/27 01:46:48;;;;;;;3.55;3.25;;;;;;;;;;4703188;30;20239;-89
2020/12/27 01:49:15;;;;;;;4.68;4.20;;;;;;;;;;4703788;30;20286;-90
2020/12/27 01:51:42;;;;;;;5.68;3.78;;;;;;;;;;4703771;30;20218;-89
2020/12/27 01:54:10;;;;;;;3.10;2.80;;;;;;;;;;4703644;30;20222;-93
2020/12/27 01:56:40;;;;;;;4.35;3.63;;;;;;;;;;4703508;30;20569;-92
2020/12/27 01:59:11;;;;;;;4.57;3.42;;;;;;;;;;4703432;30;20199;-88
2020/12/27 02:01:38;;;;;;;3.42;3.13;;;;;;;;;;4703478;30;20210;-89
2020/12/27 02:04:19;;;;;;;4.47;3.60;;;;;;;;;;4703276;30;20281;-92
2020/12/27 02:06:46;;;;;;;3.90;3.50;;;;;;;;;;4703404;30;20279;-87
2020/12/27 02:09:14;;;;;;;4.43;3.30;;;;;;;;;;4703175;30;20210;-87
2020/12/27 02:11:41;;;;;;;3.75;3.45;;;;;;;;;;4702529;30;20214;-88
2020/12/27 02:14:08;;;;;;;3.97;3.50;;;;;;;;;;4706028;30;20226;-89
2020/12/27 02:16:35;;;;;;;4.38;3.20;;;;;;;;;;4706266;30;20190;-87
2020/12/27 02:19:07;;;;;;;4.30;3.20;;;;;;;;;;4706240;30;20209;-87
2020/12/27 02:21:34;;;;;;;5.30;3.53;;;;;;;;;;4706105;30;20199;-88
2020/12/27 02:24:02;;;;;;;3.42;3.13;;;;;;;;;;4706535;30;20586;-87
2020/12/27 02:26:29;;;;;;;9.10;4.07;;;;;;;;;;4705962;30;20207;-86
2020/12/27 02:28:57;;;;;;;6.70;3.42;;;;;;;;;;4705942;30;20195;-88
2020/12/27 02:31:25;;;;;;;7.85;3.50;;;;;;;;;;4705621;30;20210;-87
2020/12/27 02:33:53;;;;;;;5.03;2.83;;;;;;;;;;4706279;30;20205;-88
2020/12/27 02:36:20;;;;;;;3.70;2.88;;;;;;;;;;4706079;30;20643;-87
2020/12/27 02:38:47;;;;;;;3.97;3.58;;;;;;;;;;4706070;30;20454;-86
2020/12/27 02:41:17;;;;;;;4.10;3.35;;;;;;;;;;4705937;30;20196;-87
2020/12/27 02:43:44;;;;;;;3.88;3.13;;;;;;;;;;4705581;30;20277;-88
2020/12/27 02:46:22;;;;;;;3.88;2.95;;;;;;;;;;4705861;30;20238;-88
2020/12/27 02:48:49;;;;;;;3.03;2.83;;;;;;;;;;4706014;30;20202;-88
2020/12/27 02:51:16;;;;;;;3.45;2.92;;;;;;;;;;4706390;30;20296;-88
2020/12/27 02:53:48;;;;;;;4.13;3.05;;;;;;;;;;4706337;30;20212;-91
2020/12/27 02:56:18;;;;;;;4.00;2.50;;;;;;;;;;4707006;30;20214;-94
2020/12/27 02:58:45;;;;;;;3.50;2.50;;;;;;;;;;4708391;30;20214;-92
2020/12/27 03:03:51;;;;;;;3.47;2.35;;;;;;;;;;4804316;24;20251;-94
2020/12/27 03:06:19;;;;;;;2.80;2.50;;;;;;;;;;4784176;30;20653;-92
2020/12/27 03:08:54;;;;;;;3.13;2.83;;;;;;;;;;4781778;30;20218;-91
2020/12/27 03:11:22;;;;;;;3.67;2.78;;;;;;;;;;4779160;30;20227;-94
2020/12/27 03:13:49;;;;;;;2.88;2.60;;;;;;;;;;4781650;30;20242;-92
2020/12/27 03:16:16;;;;;;;3.05;2.33;;;;;;;;;;4777320;30;20230;-91
2020/12/27 03:18:43;;;;;;;2.88;2.60;;;;;;;;;;4777094;30;20468;-90
2020/12/27 03:21:10;;;;;;;4.38;2.50;;;;;;;;;;4777433;30;20277;-93
2020/12/27 03:23:37;;;;;;;3.72;2.55;;;;;;;;;;4776926;30;20295;-93
2020/12/27 03:26:04;;;;;;;3.80;2.70;;;;;;;;;;4776841;30;20236;-91
2020/12/27 03:28:32;;;;;;;3.65;2.55;;;;;;;;;;4776911;30;20462;-93
2020/12/27 03:31:11;;;;;;;2.60;2.40;;;;;;;;;;4777425;30;20489;-94
2020/12/27 03:33:38;;;;;;;6.03;2.67;;;;;;;;;;4776661;30;20323;-91
2020/12/27 03:36:06;;;;;;;3.03;2.42;;;;;;;;;;4777279;30;20212;-94
2020/12/27 03:38:33;;;;;;;4.93;2.85;;;;;;;;;;4776679;30;20617;-91
2020/12/27 03:41:02;;;;;;;3.88;2.67;;;;;;;;;;4776804;30;20332;-92
2020/12/27 03:43:29;;;;;;;3.58;2.85;;;;;;;;;;4776911;30;20211;-90
2020/12/27 03:45:57;;;;;;;3.80;2.40;;;;;;;;;;4776569;30;20208;-90
2020/12/27 03:48:24;;;;;;;2.53;2.33;;;;;;;;;;4776764;30;20196;-91
2020/12/27 03:50:51;;;;;;;6.75;2.80;;;;;;;;;;4776767;30;20300;-89
2020/12/27 03:53:19;;;;;;;5.22;2.67;;;;;;;;;;4776772;30;20535;-89
2020/12/27 03:55:46;;;;;;;2.13;2.00;;;;;;;;;;4776718;30;20536;-90
2020/12/27 03:58:13;;;;;;;3.05;2.17;;;;;;;;;;4776414;30;20581;-89
2020/12/27 04:00:40;;;;;;;3.72;2.10;;;;;;;;;;4776526;30;20192;-90
2020/12/27 04:03:08;;;;;;;2.80;2.25;;;;;;;;;;4776042;30;20662;-88
2020/12/27 04:05:34;;;;;;;3.75;2.10;;;;;;;;;;4776516;30;20282;-88
2020/12/27 04:08:01;;;;;;;3.53;2.53;;;;;;;;;;4776667;30;20294;-88
2020/12/27 04:10:28;;;;;;;2.70;2.50;;;;;;;;;;4776653;30;20295;-89
2020/12/27 04:12:55;;;;;;;3.28;2.97;;;;;;;;;;4776814;30;20192;-91
2020/12/27 04:15:22;;;;;;;4.60;3.47;;;;;;;;;;4776641;30;20210;-89
2020/12/27 04:17:49;;;;;;;4.50;2.97;;;;;;;;;;4776310;30;20219;-88
2020/12/27 04:20:17;;;;;;;2.42;2.13;;;;;;;;;;4770876;30;20482;-89
2020/12/27 04:22:44;;;;;;;2.90;2.70;;;;;;;;;;4774049;30;20204;-90
2020/12/27 04:25:11;;;;;;;3.50;2.65;;;;;;;;;;4780093;30;20215;-91
2020/12/27 04:27:38;;;;;;;3.40;3.10;;;;;;;;;;4780208;30;20211;-90
2020/12/27 04:30:05;;;;;;;5.18;2.75;;;;;;;;;;4781535;30;20259;-90
2020/12/27 04:32:32;;;;;;;3.15;2.80;;;;;;;;;;4777783;30;20239;-91
2020/12/27 04:34:59;;;;;;;3.65;2.53;;;;;;;;;;4775521;30;20223;-92
2020/12/27 04:37:27;;;;;;;4.85;2.65;;;;;;;;;;4776505;30;20204;-92
2020/12/27 04:39:54;;;;;;;2.40;2.20;;;;;;;;;;4775991;30;20222;-91
2020/12/27 04:42:22;;;;;;;2.80;2.60;;;;;;;;;;4775955;30;20212;-92
2020/12/27 04:44:49;;;;;;;3.22;2.70;;;;;;;;;;4777311;30;20306;-93
2020/12/27 04:47:16;;;;;;;2.50;2.30;;;;;;;;;;4778237;30;20196;-92
2020/12/27 04:49:44;;;;;;;3.08;2.38;;;;;;;;;;4779269;30;20582;-94
2020/12/27 04:52:13;;;;;;;3.05;2.67;;;;;;;;;;4778383;30;20218;-90
2020/12/27 04:54:41;;;;;;;2.60;2.40;;;;;;;;;;4777076;30;20196;-92
2020/12/27 04:57:08;;;;;;;2.72;2.53;;;;;;;;;;4776024;30;20503;-90
2020/12/27 04:59:35;;;;;;;2.63;2.42;;;;;;;;;;4775428;30;20275;-92
2020/12/27 05:02:03;;;;;;;4.70;2.10;;;;;;;;;;4775693;30;20232;-90
2020/12/27 05:04:30;;;;;;;5.30;2.33;;;;;;;;;;4775604;30;20593;-90
2020/12/27 05:06:57;;;;;;;2.75;2.45;;;;;;;;;;4775680;30;20188;-90
2020/12/27 05:09:27;;;;;;;2.83;2.40;;;;;;;;;;4775514;30;20215;-91
2020/12/27 05:11:56;;;;;;;2.50;2.28;;;;;;;;;;4775480;30;20559;-91
2020/12/27 05:14:24;;;;;;;5.22;2.83;;;;;;;;;;4775869;30;20452;-89
2020/12/27 05:16:53;;;;;;;4.43;2.92;;;;;;;;;;4775450;30;20567;-90
2020/12/27 05:19:21;;;;;;;2.72;2.47;;;;;;;;;;4775682;30;20455;-90
2020/12/27 05:21:48;;;;;;;5.68;2.60;;;;;;;;;;4775557;30;20475;-93
2020/12/27 05:24:17;;;;;;;2.22;2.10;;;;;;;;;;4775735;30;20226;-92
2020/12/27 05:26:45;;;;;;;3.53;2.70;;;;;;;;;;4775168;30;20685;-91
2020/12/27 05:29:14;;;;;;;2.70;2.25;;;;;;;;;;4775993;30;20231;-91
2020/12/27 05:31:41;;;;;;;6.10;2.63;;;;;;;;;;4775742;30;20204;-91
2020/12/27 05:34:10;;;;;;;4.03;2.28;;;;;;;;;;4775343;30;20227;-92
2020/12/27 05:36:37;;;;;;;5.18;2.40;;;;;;;;;;4775411;30;20203;-88
2020/12/27 05:39:04;;;;;;;2.38;2.17;;;;;;;;;;4775529;30;20472;-90
2020/12/27 05:41:32;;;;;;;3.47;2.28;;;;;;;;;;4775568;30;20201;-91
2020/12/27 05:44:04;;;;;;;2.53;2.33;;;;;;;;;;4775261;30;20200;-92
2020/12/27 05:46:32;;;;;;;3.58;2.25;;;;;;;;;;4775243;30;20227;-92
2020/12/27 05:49:00;;;;;;;2.40;2.22;;;;;;;;;;4778783;30;20203;-92
2020/12/27 05:51:27;;;;;;;2.40;2.20;;;;;;;;;;4779285;30;20197;-88
2020/12/27 05:53:55;;;;;;;4.90;2.65;;;;;;;;;;4779326;30;20218;-90
2020/12/27 05:56:23;;;;;;;3.83;2.13;;;;;;;;;;4778694;30;20202;-90
2020/12/27 05:58:50;;;;;;;2.35;2.08;;;;;;;;;;4778591;30;20570;-90
2020/12/27 06:01:22;;;;;;;2.15;1.95;;;;;;;;;;4778399;30;20559;-90
2020/12/27 06:04:01;;;;;;;2.45;2.28;;;;;;;;;;4778697;30;20246;-90
2020/12/27 06:07:05;;;;;;;2.63;2.40;;;;;;;;;;4748347;30;20231;-91
2020/12/27 06:10:01;;;;;;;3.05;2.63;;;;;;;;;;4779092;30;20223;-92
2020/12/27 06:13:11;;;;;;;4.90;2.60;;;;;;;;;;4777516;30;20207;-91
2020/12/27 06:15:46;;;;;;;1.85;1.75;;;;;;;;;;4778510;30;20204;-89
2020/12/27 06:18:15;;;;;;;2.28;2.17;;;;;;;;;;4778315;30;20184;-91
2020/12/27 06:20:44;;;;;;;2.53;1.98;;;;;;;;;;4778290;30;20218;-89
2020/12/27 06:23:12;;;;;;;2.50;2.08;;;;;;;;;;4778340;30;20192;-91
2020/12/27 06:25:40;;;;;;;3.30;2.33;;;;;;;;;;4778590;30;20298;-91
2020/12/27 06:28:08;;;;;;;2.40;2.20;;;;;;;;;;4778836;30;20212;-93
2020/12/27 06:30:37;;;;;;;2.65;2.45;;;;;;;;;;4779075;30;20200;-93
2020/12/27 06:33:10;;;;;;;2.58;2.38;;;;;;;;;;4778431;30;20362;-91
2020/12/27 06:35:38;;;;;;;3.22;2.50;;;;;;;;;;4781079;30;20601;-90
2020/12/27 06:38:25;;;;;;;3.22;2.10;;;;;;;;;;4782219;30;20269;-91
2020/12/27 06:40:58;;;;;;;2.60;2.40;;;;;;;;;;4779431;30;20439;-93
2020/12/27 06:43:32;;;;;;;4.28;2.20;;;;;;;;;;4778357;30;20280;-89
2020/12/27 06:46:21;;;;;;;2.13;1.92;;;;;;;;;;4778174;30;20231;-92
2020/12/27 06:48:48;;;;;;;3.67;2.30;;;;;;;;;;4778084;30;20456;-92
2020/12/27 06:51:37;;;;;;;3.80;2.42;;;;;;;;;;4777819;30;20184;-93
2020/12/27 06:54:05;;;;;;;2.85;1.95;;;;;;;;;;4778457;30;20203;-93
2020/12/27 06:56:41;;;;;;;4.80;2.03;;;;;;;;;;4777788;30;20271;-90
2020/12/27 06:59:08;;;;;;;3.67;2.17;;;;;;;;;;4777201;30;20200;-92
2020/12/27 07:01:36;;;;;;;3.35;2.45;;;;;;;;;;4777851;30;20208;-89
2020/12/27 07:04:14;;;;;;;2.83;2.10;;;;;;;;;;4742474;30;20495;-90
2020/12/27 07:06:43;;;;;;;2.70;2.50;;;;;;;;;;4742271;30;20260;-89
2020/12/27 07:09:11;;;;;;;3.03;1.70;;;;;;;;;;4742108;30;20227;-94
2020/12/27 07:11:38;;;;;;;2.10;2.00;;;;;;;;;;4741945;30;20275;-88
2020/12/27 07:14:05;;;;;;;2.55;2.33;;;;;;;;;;4742057;30;20276;-90
2020/12/27 07:16:44;;;;;;;4.10;2.25;;;;;;;;;;4741873;30;20619;-92
2020/12/27 07:19:16;;;;;;;2.55;1.95;;;;;;;;;;4741907;30;20266;-92
2020/12/27 07:21:46;;;;;;;3.53;2.33;;;;;;;;;;4741963;30;20568;-89
2020/12/27 07:24:24;;;;;;;3.00;2.13;;;;;;;;;;4741629;30;20204;-91
2020/12/27 07:26:52;;;;;;;2.22;2.00;;;;;;;;;;4741627;30;20286;-90
2020/12/27 07:29:21;;;;;;;2.90;2.70;;;;;;;;;;4742007;30;20219;-89
2020/12/27 07:31:52;;;;;;;2.15;1.52;;;;;;;;;;4741925;30;20287;-93
2020/12/27 07:34:24;;;;;;;2.08;1.90;;;;;;;;;;4741682;30;20490;-91
2020/12/27 07:36:59;;;;;;;4.30;2.35;;;;;;;;;;4741608;30;20645;-92
2020/12/27 07:39:56;;;;;;;3.42;2.25;;;;;;;;;;4741369;30;20201;-92
2020/12/27 07:42:25;;;;;;;2.65;2.22;;;;;;;;;;4741692;30;20248;-91
2020/12/27 07:44:53;;;;;;;2.92;2.20;;;;;;;;;;4741900;30;20466;-94
2020/12/27 07:47:21;;;;;;;4.30;2.47;;;;;;;;;;4741770;30;20320;-94
2020/12/27 07:50:11;;;;;;;2.20;2.00;;;;;;;;;;4743707;30;20296;-92
2020/12/27 07:52:58;;;;;;;2.80;2.33;;;;;;;;;;4743840;30;20467;-93
2020/12/27 07:55:32;;;;;;;4.97;2.60;;;;;;;;;;4742843;30;20224;-93
2020/12/27 07:58:02;;;;;;;2.63;2.25;;;;;;;;;;4744785;30;20576;-93
2020/12/27 08:00:33;;;;;;;3.45;2.60;;;;;;;;;;4741903;30;20214;-93
2020/12/27 08:03:05;;;;;;;4.25;2.75;;;;;;;;;;4762298;30;20319;-91
2020/12/27 08:05:32;;;;;;;2.10;2.00;;;;;;;;;;4777406;30;20228;-93
2020/12/27 08:08:08;;;;;;;2.75;2.25;;;;;;;;;;4777717;30;20208;-91
2020/12/27 08:10:36;;;;;;;2.47;2.28;;;;;;;;;;4776124;30;20225;-91
2020/12/27 08:13:05;;;;;;;3.05;2.75;;;;;;;;;;4776822;30;20223;-89
2020/12/27 08:15:37;;;;;;;5.15;2.85;;;;;;;;;;4776476;30;20212;-92
2020/12/27 08:18:07;;;;;;;5.40;2.65;;;;;;;;;;4776886;30;20212;-92
2020/12/27 08:21:09;;;;;;;2.63;2.42;;;;;;;;;;4777892;30;20218;-95
2020/12/27 08:23:37;;;;;;;3.88;2.85;;;;;;;;;;4743337;30;20218;-92
2020/12/27 08:26:05;;;;;;;3.35;2.58;;;;;;;;;;4739667;30;20241;-93
2020/12/27 08:28:35;;;;;;;2.38;2.17;;;;;;;;;;4740635;30;20209;-95
2020/12/27 08:31:02;;;;;;;4.13;2.42;;;;;;;;;;4740936;30;20209;-92
2020/12/27 08:33:29;;;;;;;2.72;2.50;;;;;;;;;;4740459;30;20302;-95
2020/12/27 08:35:57;;;;;;;4.45;2.63;;;;;;;;;;4740202;30;20235;-94
2020/12/27 08:38:34;;;;;;;2.72;2.53;;;;;;;;;;4739629;30;20243;-93
2020/12/27 08:41:20;;;;;;;2.80;2.60;;;;;;;;;;4739522;30;20497;-92
2020/12/27 08:44:18;;;;;;;2.75;2.55;;;;;;;;;;4739618;30;20197;-93
2020/12/27 08:46:49;;;;;;;3.35;2.47;;;;;;;;;;4704563;30;20309;-92
2020/12/27 08:49:29;;;;;;;3.90;3.03;;;;;;;;;;4739044;30;20534;-94
2020/12/27 08:52:05;;;;;;;2.67;2.30;;;;;;;;;;4741662;30;20278;-94
2020/12/27 08:54:34;;;;;;;2.97;2.63;;;;;;;;;;4743631;30;20279;-93
2020/12/27 08:58:02;;;;;;;5.45;2.60;;;;;;;;;;4667894;30;20212;-95
2020/12/27 09:00:58;;;;;;;3.13;2.63;;;;;;;;;;4683434;30;20200;-94
2020/12/27 09:03:28;;;;;;;2.70;2.38;;;;;;;;;;4675240;30;20255;-94
2020/12/27 09:06:14;;;;;;;4.43;3.45;;;;;;;;;;4675613;30;20315;-95
2020/12/27 09:08:41;;;;;;;4.65;3.10;;;;;;;;;;4673291;30;20280;-92
2020/12/27 09:11:16;;;;;;;2.70;2.50;;;;;;;;;;4674712;30;20490;-94
2020/12/27 09:13:47;;;;;;;2.75;2.35;;;;;;;;;;4679279;30;20259;-94
2020/12/27 09:16:34;;;;;;;2.58;2.38;;;;;;;;;;4740367;30;20217;-94
2020/12/27 09:19:10;;;;;;;2.90;2.20;;;;;;;;;;4739348;30;20353;-94
2020/12/27 09:21:43;;;;;;;3.17;2.58;;;;;;;;;;4739158;30;20213;-94
2020/12/27 09:24:14;;;;;;;2.50;2.30;;;;;;;;;;4760468;30;20294;-94
2020/12/27 09:26:41;;;;;;;2.45;2.22;;;;;;;;;;4775378;30;20673;-91
2020/12/27 09:29:17;;;;;;;3.08;2.70;;;;;;;;;;4775844;30;20283;-93
2020/12/27 09:31:46;;;;;;;2.55;2.35;;;;;;;;;;4775773;30;20199;-94
2020/12/27 09:34:13;;;;;;;3.72;3.05;;;;;;;;;;4775861;30;20291;-95
2020/12/27 09:36:40;;;;;;;3.60;2.95;;;;;;;;;;4775697;30;20480;-93
2020/12/27 09:39:08;;;;;;;2.75;2.55;;;;;;;;;;4776586;30;20295;-93
2020/12/27 09:41:39;;;;;;;6.20;3.55;;;;;;;;;;4777026;30;20590;-94
2020/12/27 09:44:06;;;;;;;2.85;2.40;;;;;;;;;;4776937;30;20503;-95
2020/12/27 09:46:46;;;;;;;4.55;2.83;;;;;;;;;;4777582;30;20569;-93
2020/12/27 09:49:33;;;;;;;4.72;2.75;;;;;;;;;;4776811;30;20212;-95
2020/12/27 09:52:05;;;;;;;2.42;2.22;;;;;;;;;;4780630;30;20207;-95
2020/12/27 09:54:33;;;;;;;2.95;2.58;;;;;;;;;;4777529;30;20215;-93
2020/12/27 09:57:09;;;;;;;3.30;3.00;;;;;;;;;;4777110;30;20207;-95
2020/12/27 09:59:36;;;;;;;2.92;2.50;;;;;;;;;;4775534;30;20207;-92
2020/12/27 10:02:04;;;;;;;4.32;2.90;;;;;;;;;;4776964;30;20314;-93
2020/12/27 10:04:31;;;;;;;2.53;2.33;;;;;;;;;;4777496;30;20207;-92
2020/12/27 10:06:59;;;;;;;2.30;2.13;;;;;;;;;;4775201;30;20232;-93
2020/12/27 10:09:31;;;;;;;3.10;2.25;;;;;;;;;;4745109;30;20547;-93
2020/12/27 10:11:58;;;;;;;2.50;2.30;;;;;;;;;;4738743;30;20206;-95
2020/12/27 10:14:26;;;;;;;3.58;2.72;;;;;;;;;;4739548;30;20564;-94
2020/12/27 10:16:56;;;;;;;6.28;2.28;;;;;;;;;;4739973;30;20213;-93
2020/12/27 10:19:27;;;;;;;2.38;2.17;;;;;;;;;;4738869;30;20216;-93
2020/12/27 10:21:54;;;;;;;3.13;2.72;;;;;;;;;;4738728;30;20283;-94
2020/12/27 10:24:26;;;;;;;2.45;2.25;;;;;;;;;;4738994;30;20217;-94
2020/12/27 10:26:54;;;;;;;2.33;2.13;;;;;;;;;;4738880;30;20290;-94
2020/12/27 10:29:21;;;;;;;4.72;2.63;;;;;;;;;;4744802;30;20200;-93
2020/12/27 10:31:51;;;;;;;2.72;2.33;;;;;;;;;;4775115;30;20219;-94
2020/12/27 10:34:22;;;;;;;2.97;2.42;;;;;;;;;;4777271;30;20207;-94
2020/12/27 10:36:51;;;;;;;3.75;2.72;;;;;;;;;;4778601;30;20236;-93
2020/12/27 10:39:20;;;;;;;4.63;2.35;;;;;;;;;;4777605;30;20283;-91
2020/12/27 10:41:49;;;;;;;3.80;2.83;;;;;;;;;;4778018;30;20547;-92
2020/12/27 10:44:17;;;;;;;4.05;3.20;;;;;;;;;;4776997;30;20526;-90
2020/12/27 10:46:49;;;;;;;3.33;2.70;;;;;;;;;;4776082;30;20570;-94
2020/12/27 10:49:19;;;;;;;3.25;2.90;;;;;;;;;;4778505;30;20200;-93
2020/12/27 10:51:52;;;;;;;3.00;2.78;;;;;;;;;;4777772;30;20215;-94
2020/12/27 10:54:20;;;;;;;3.47;3.15;;;;;;;;;;4776084;30;20265;-93
2020/12/27 10:56:47;;;;;;;3.03;2.83;;;;;;;;;;4777637;30;20216;-93
2020/12/27 10:59:14;;;;;;;5.95;3.50;;;;;;;;;;4777817;30;20479;-93
2020/12/27 11:01:45;;;;;;;4.10;2.90;;;;;;;;;;4777427;30;20576;-92
2020/12/27 11:04:12;;;;;;;3.88;2.92;;;;;;;;;;4778484;30;20222;-93
2020/12/27 11:06:40;;;;;;;3.63;2.50;;;;;;;;;;4778091;30;20208;-92
2020/12/27 11:09:08;;;;;;;3.22;2.92;;;;;;;;;;4777055;30;20212;-91
2020/12/27 11:11:36;;;;;;;4.32;3.10;;;;;;;;;;4777268;30;20211;-94
2020/12/27 11:14:04;;;;;;;4.28;2.97;;;;;;;;;;4775499;30;20204;-92
2020/12/27 11:16:33;;;;;;;3.40;3.10;;;;;;;;;;4777227;30;20659;-93
2020/12/27 11:19:01;;;;;;;3.28;2.92;;;;;;;;;;4776989;30;20204;-93
2020/12/27 11:21:28;;;;;;;3.08;2.70;;;;;;;;;;4777050;30;20204;-92
2020/12/27 11:23:55;;;;;;;3.25;2.95;;;;;;;;;;4778114;30;20214;-91
2020/12/27 11:26:23;;;;;;;3.10;2.72;;;;;;;;;;4777015;30;20517;-92
2020/12/27 11:28:51;;;;;;;2.65;2.38;;;;;;;;;;4777023;30;20208;-92
2020/12/27 11:31:20;;;;;;;3.03;2.72;;;;;;;;;;4776701;30;20216;-92
2020/12/27 11:33:51;;;;;;;2.67;2.35;;;;;;;;;;4776581;30;20465;-92
2020/12/27 11:36:18;;;;;;;2.53;2.33;;;;;;;;;;4776995;30;20537;-94
2020/12/27 11:38:48;;;;;;;2.60;2.40;;;;;;;;;;4776948;30;20292;-93
2020/12/27 11:41:36;;;;;;;2.78;2.45;;;;;;;;;;4777803;30;20216;-95
2020/12/27 11:44:21;;;;;;;2.20;2.00;;;;;;;;;;4779484;29;20254;-95
2020/12/27 11:46:48;;;;;;;2.85;2.50;;;;;;;;;;4779767;30;20212;-94
2020/12/27 11:49:15;;;;;;;2.47;2.25;;;;;;;;;;4778948;30;20264;-94
2020/12/27 11:51:42;;;;;;;2.65;2.45;;;;;;;;;;4778857;30;20212;-94
2020/12/27 11:54:09;;;;;;;3.03;2.65;;;;;;;;;;4779047;30;20200;-94
2020/12/27 11:56:36;;;;;;;2.22;2.10;;;;;;;;;;4777564;30;20228;-90
2020/12/27 11:59:05;;;;;;;2.47;2.28;;;;;;;;;;4777578;30;20198;-94
2020/12/27 12:01:33;;;;;;;3.05;2.22;;;;;;;;;;4837665;24;20270;-92
2020/12/27 12:04:00;;;;;;;2.63;2.42;;;;;;;;;;4777821;30;20215;-91
2020/12/27 12:06:28;;;;;;;2.17;1.98;;;;;;;;;;4809971;29;20215;-92
2020/12/27 12:08:55;;;;;;;4.25;2.70;;;;;;;;;;4812103;29;20230;-91
2020/12/27 12:11:22;;;;;;;2.10;1.80;;;;;;;;;;4812468;29;20216;-90
2020/12/27 12:13:50;;;;;;;2.70;2.03;;;;;;;;;;4812064;29;20588;-89
2020/12/27 12:16:20;;;;;;;4.18;2.00;;;;;;;;;;4812601;29;20557;-91
2020/12/27 12:18:49;;;;;;;3.13;2.42;;;;;;;;;;4812074;29;20577;-91
2020/12/27 12:21:15;;;;;;;2.78;2.08;;;;;;;;;;4812438;29;20486;-90
2020/12/27 12:23:43;;;;;;;2.50;2.30;;;;;;;;;;4813950;29;20336;-96
2020/12/27 12:30:54;;;;;;;3.03;2.30;;;;;;;;;;4714111;30;20249;-94
2020/12/27 12:33:21;;;;;;;2.83;2.30;;;;;;;;;;4628607;30;20220;-95
2020/12/27 12:35:57;;;;;;;2.75;2.03;;;;;;;;;;4654693;30;20602;-94
2020/12/27 12:41:30;;;;;;;1.98;1.77;;;;;;;;;;4624817;30;20265;-96
2020/12/27 12:43:59;;;;;;;2.15;1.95;;;;;;;;;;4623122;31;20214;-94
2020/12/27 12:46:27;;;;;;;2.70;2.30;;;;;;;;;;4622022;31;20282;-95
2020/12/27 12:48:57;;;;;;;2.97;2.00;;;;;;;;;;4623201;31;20229;-94
2020/12/27 12:51:25;;;;;;;2.45;2.20;;;;;;;;;;4617624;31;20250;-93
2020/12/27 12:53:54;;;;;;;2.42;2.10;;;;;;;;;;4614754;31;20218;-94
2020/12/27 12:56:21;;;;;;;2.88;2.60;;;;;;;;;;4619273;30;20497;-93
2020/12/27 12:58:54;;;;;;;2.53;1.83;;;;;;;;;;4651842;30;20303;-94
2020/12/27 13:01:21;;;;;;;1.85;1.75;;;;;;;;;;4755476;30;20323;-93
2020/12/27 13:03:48;;;;;;;2.25;2.05;;;;;;;;;;4755978;30;20213;-92
2020/12/27 13:06:15;;;;;;;2.08;1.92;;;;;;;;;;4779339;29;20211;-94
2020/12/27 13:08:48;;;;;;;2.25;2.05;;;;;;;;;;4791386;30;20302;-94
2020/12/27 13:11:15;;;;;;;2.63;1.92;;;;;;;;;;4790288;30;20234;-94
2020/12/27 13:13:42;;;;;;;3.15;2.95;;;;;;;;;;4792951;29;20277;-94
2020/12/27 13:16:19;;;;;;;2.30;2.10;;;;;;;;;;4793258;30;20199;-94
2020/12/27 13:18:46;;;;;;;1.58;1.48;;;;;;;;;;4792809;30;20536;-93
2020/12/27 13:21:13;;;;;;;1.67;1.58;;;;;;;;;;4793020;30;20556;-93
2020/12/27 13:23:41;;;;;;;1.83;1.73;;;;;;;;;;4793755;30;20250;-94
2020/12/27 13:26:09;;;;;;;2.15;1.70;;;;;;;;;;4792379;29;20207;-92
2020/12/27 13:28:38;;;;;;;2.17;1.98;;;;;;;;;;4792460;29;20565;-95
2020/12/27 13:31:07;;;;;;;2.28;2.03;;;;;;;;;;4792650;29;20227;-94
2020/12/27 13:33:34;;;;;;;1.67;1.58;;;;;;;;;;4792896;30;20203;-94
2020/12/27 13:36:06;;;;;;;3.08;2.05;;;;;;;;;;4792590;29;20231;-93
2020/12/27 13:38:33;;;;;;;2.38;2.00;;;;;;;;;;4791654;30;20570;-93
2020/12/27 13:41:01;;;;;;;1.48;1.38;;;;;;;;;;4792553;30;20194;-91
2020/12/27 13:43:28;;;;;;;2.08;1.67;;;;;;;;;;4792479;30;20214;-91
2020/12/27 13:45:55;;;;;;;2.95;1.70;;;;;;;;;;4792770;30;20198;-88
2020/12/27 13:48:22;;;;;;;2.03;1.83;;;;;;;;;;4792846;30;20223;-90
2020/12/27 13:50:49;;;;;;;3.90;2.22;;;;;;;;;;4792926;30;20213;-90
2020/12/27 13:53:16;;;;;;;3.38;1.27;;;;;;;;;;4791784;29;20238;-89
2020/12/27 13:55:43;;;;;;;1.85;1.75;;;;;;;;;;4792748;30;20587;-89
2020/12/27 13:58:10;;;;;;;2.08;1.98;;;;;;;;;;4793149;30;20207;-90
2020/12/27 14:00:37;;;;;;;1.67;1.58;;;;;;;;;;4792601;30;20239;-90
2020/12/27 14:03:04;;;;;;;2.38;1.90;;;;;;;;;;4792846;30;20221;-90
2020/12/27 14:05:31;;;;;;;2.50;2.30;;;;;;;;;;4792572;29;20203;-91
2020/12/27 14:07:58;;;;;;;1.65;1.55;;;;;;;;;;4792800;29;20490;-91
2020/12/27 14:10:25;;;;;;;2.20;1.70;;;;;;;;;;4796893;30;20203;-94
2020/12/27 14:12:52;;;;;;;1.73;1.63;;;;;;;;;;4796343;30;20283;-91
2020/12/27 14:15:20;;;;;;;1.85;1.70;;;;;;;;;;4796237;30;20226;-91
2020/12/27 14:17:47;;;;;;;2.22;1.55;;;;;;;;;;4792077;29;20208;-90
2020/12/27 14:20:15;;;;;;;1.95;1.75;;;;;;;;;;4784857;30;20223;-88
2020/12/27 14:22:42;;;;;;;2.88;1.88;;;;;;;;;;4795408;30;20280;-91
2020/12/27 14:25:09;;;;;;;1.40;1.30;;;;;;;;;;4796089;30;20290;-93
2020/12/27 14:27:36;;;;;;;1.60;1.50;;;;;;;;;;4795802;30;20566;-92
2020/12/27 14:30:03;;;;;;;4.70;2.25;;;;;;;;;;4795717;29;20332;-92
2020/12/27 14:32:31;;;;;;;1.85;1.75;;;;;;;;;;4796101;29;20236;-91
2020/12/27 14:34:58;;;;;;;3.30;2.47;;;;;;;;;;4794665;29;20214;-92
2020/12/27 14:37:25;;;;;;;1.70;1.60;;;;;;;;;;4788329;30;20291;-88
2020/12/27 14:39:52;;;;;;;2.42;2.22;;;;;;;;;;4794607;29;20274;-90
2020/12/27 14:42:19;;;;;;;4.93;1.73;;;;;;;;;;4789388;29;20203;-89
2020/12/27 14:44:46;;;;;;;2.45;1.63;;;;;;;;;;4788297;29;20483;-88
2020/12/27 14:47:13;;;;;;;1.67;1.58;;;;;;;;;;4795439;30;20199;-89
2020/12/27 14:49:40;;;;;;;1.83;1.73;;;;;;;;;;4795669;30;20302;-85
2020/12/27 14:52:07;;;;;;;1.75;1.65;;;;;;;;;;4795746;30;20192;-88
2020/12/27 14:54:34;;;;;;;2.05;1.63;;;;;;;;;;4795399;30;20289;-87
2020/12/27 14:57:01;;;;;;;1.58;1.48;;;;;;;;;;4795359;30;20230;-88
2020/12/27 14:59:28;;;;;;;1.52;1.33;;;;;;;;;;4795183;30;20591;-88
2020/12/27 15:01:55;;;;;;;1.60;1.50;;;;;;;;;;4794732;30;20235;-89
2020/12/27 15:04:22;;;;;;;2.20;2.00;;;;;;;;;;4795405;30;20283;-90
2020/12/27 15:06:55;;;;;;;2.38;2.17;;;;;;;;;;4794853;30;20222;-85
2020/12/27 15:09:23;;;;;;;1.80;1.70;;;;;;;;;;4794491;30;20234;-87